Time,TemperatureF,DewpointF,PressureIn,WindDirection,WindDirectionDegrees,WindSpeedMPH,WindSpeedGustMPH,Humidity,HourlyPrecipIn,Conditions,Clouds,dailyrainin,SoftwareType,DateUTC
2013-05-05 00:02:00,59.0,36.0,-100.00,East,90,0.0,0.0,42,0.00,,,0.00,,2013-05-05 04:02:00,
2013-05-05 00:12:00,58.0,36.0,-100.00,East,90,0.0,0.0,43,0.00,,,0.00,,2013-05-05 04:12:00,
2013-05-05 00:23:00,58.0,36.0,-100.00,East,90,0.0,0.0,43,0.00,,,0.00,,2013-05-05 04:23:00,
2013-05-05 00:32:00,58.0,36.0,-100.00,East,90,0.0,0.0,44,0.00,,,0.00,,2013-05-05 04:32:00,
2013-05-05 00:43:00,58.0,36.0,-100.00,East,90,0.0,0.0,44,0.00,,,0.00,,2013-05-05 04:43:00,
2013-05-05 00:53:00,57.0,36.0,-100.00,East,90,0.0,0.0,46,0.00,,,0.00,,2013-05-05 04:53:00,
2013-05-05 01:02:00,56.0,37.0,-100.00,East,90,0.0,0.0,49,0.00,,,0.00,,2013-05-05 05:02:00,
2013-05-05 01:12:00,56.0,37.0,-100.00,East,90,0.0,0.0,49,0.00,,,0.00,,2013-05-05 05:12:00,
2013-05-05 01:22:00,55.0,37.0,-100.00,East,90,0.0,0.0,51,0.00,,,0.00,,2013-05-05 05:22:00,
2013-05-05 01:32:00,55.0,38.0,-100.00,East,90,0.0,0.0,52,0.00,,,0.00,,2013-05-05 05:32:00,
2013-05-05 01:42:00,55.0,38.0,-100.00,East,90,0.0,0.0,52,0.00,,,0.00,,2013-05-05 05:42:00,
2013-05-05 01:52:00,55.0,38.0,-100.00,East,90,0.0,0.0,52,0.00,,,0.00,,2013-05-05 05:52:00,
2013-05-05 02:01:00,55.0,37.0,-100.00,East,90,0.0,0.0,51,0.00,,,0.00,,2013-05-05 06:01:00,
2013-05-05 02:12:00,55.0,37.0,-100.00,East,90,0.0,0.0,51,0.00,,,0.00,,2013-05-05 06:12:00,
2013-05-05 02:21:00,55.0,37.0,-100.00,NNE,23,0.0,0.0,51,0.00,,,0.00,,2013-05-05 06:21:00,
2013-05-05 02:32:00,54.0,37.0,-100.00,NNE,23,0.0,0.0,53,0.00,,,0.00,,2013-05-05 06:32:00,
2013-05-05 02:42:00,54.0,37.0,-100.00,NNE,23,0.0,0.0,53,0.00,,,0.00,,2013-05-05 06:42:00,
2013-05-05 02:52:00,54.0,38.0,-100.00,NNE,23,0.0,0.0,55,0.00,,,0.00,,2013-05-05 06:52:00,
2013-05-05 03:01:00,53.0,38.0,-100.00,NNE,23,0.0,0.0,56,0.00,,,0.00,,2013-05-05 07:01:00,
2013-05-05 03:11:00,53.0,38.0,-100.00,NNE,23,0.0,0.0,56,0.00,,,0.00,,2013-05-05 07:11:00,
2013-05-05 03:22:00,53.0,39.0,-100.00,NNE,23,0.0,0.0,58,0.00,,,0.00,,2013-05-05 07:22:00,
2013-05-05 03:32:00,52.0,39.0,-100.00,NNE,23,0.0,0.0,60,0.00,,,0.00,,2013-05-05 07:32:00,
2013-05-05 03:42:00,52.0,39.0,-100.00,NNE,23,0.0,0.0,60,0.00,,,0.00,,2013-05-05 07:42:00,
2013-05-05 03:52:00,51.0,38.0,-100.00,NNE,23,0.0,0.0,61,0.00,,,0.00,,2013-05-05 07:52:00,
2013-05-05 04:02:00,51.0,39.0,-100.00,NNE,23,0.0,0.0,63,0.00,,,0.00,,2013-05-05 08:02:00,
2013-05-05 04:11:00,51.0,39.0,-100.00,NNE,23,0.0,0.0,63,0.00,,,0.00,,2013-05-05 08:11:00,
2013-05-05 04:21:00,51.0,40.0,-100.00,NNE,23,0.0,0.0,65,0.00,,,0.00,,2013-05-05 08:21:00,
2013-05-05 04:32:00,51.0,40.0,-100.00,NNE,23,0.0,0.0,66,0.00,,,0.00,,2013-05-05 08:32:00,
2013-05-05 04:42:00,51.0,40.0,-100.00,NNE,23,0.0,0.0,66,0.00,,,0.00,,2013-05-05 08:42:00,
2013-05-05 04:53:00,50.0,39.0,-100.00,NNE,23,0.0,0.0,67,0.00,,,0.00,,2013-05-05 08:53:00,
2013-05-05 05:01:00,50.0,40.0,-100.00,NNE,23,0.0,0.0,68,0.00,,,0.00,,2013-05-05 09:01:00,
2013-05-05 05:11:00,50.0,40.0,-100.00,NNE,23,0.0,0.0,68,0.00,,,0.00,,2013-05-05 09:11:00,
2013-05-05 05:21:00,50.0,40.0,-100.00,NNE,23,0.0,0.0,69,0.00,,,0.00,,2013-05-05 09:21:00,
2013-05-05 05:33:00,50.0,41.0,-100.00,NNE,23,0.0,0.0,70,0.00,,,0.00,,2013-05-05 09:33:00,
2013-05-05 05:42:00,50.0,41.0,-100.00,NNE,23,0.0,0.0,70,0.00,,,0.00,,2013-05-05 09:42:00,
2013-05-05 05:52:00,50.0,41.0,-100.00,NNE,23,0.0,0.0,70,0.00,,,0.00,,2013-05-05 09:52:00,
2013-05-05 06:03:00,49.0,40.0,-100.00,NNE,23,0.0,0.0,71,0.00,,,0.00,,2013-05-05 10:03:00,
2013-05-05 06:12:00,49.0,40.0,-100.00,NNE,23,0.0,0.0,72,0.00,,,0.00,,2013-05-05 10:12:00,
2013-05-05 06:22:00,49.0,40.0,-100.00,NNE,23,0.0,0.0,72,0.00,,,0.00,,2013-05-05 10:22:00,
2013-05-05 06:32:00,49.0,41.0,-100.00,NNE,23,0.0,0.0,74,0.00,,,0.00,,2013-05-05 10:32:00,
2013-05-05 06:42:00,49.0,41.0,-100.00,NNE,23,0.0,0.0,74,0.00,,,0.00,,2013-05-05 10:42:00,
2013-05-05 06:53:00,49.0,41.0,-100.00,NNE,23,0.0,0.0,75,0.00,,,0.00,,2013-05-05 10:53:00,
2013-05-05 07:01:00,49.0,41.0,-100.00,NNE,23,0.0,0.0,75,0.00,,,0.00,,2013-05-05 11:01:00,
2013-05-05 07:12:00,49.0,41.0,-100.00,NNE,23,0.0,0.0,75,0.00,,,0.00,,2013-05-05 11:12:00,
2013-05-05 07:22:00,50.0,42.0,-100.00,NNE,23,0.0,0.0,75,0.00,,,0.00,,2013-05-05 11:22:00,
2013-05-05 07:32:00,51.0,43.0,-100.00,NNE,23,0.0,0.0,73,0.00,,,0.00,,2013-05-05 11:32:00,
2013-05-05 07:42:00,51.0,43.0,-100.00,NNE,23,0.0,0.0,73,0.00,,,0.00,,2013-05-05 11:42:00,
2013-05-05 07:52:00,52.0,43.0,-100.00,NNE,23,0.0,0.0,72,0.00,,,0.00,,2013-05-05 11:52:00,
2013-05-05 08:02:00,54.0,43.0,-100.00,East,90,2.0,5.0,67,0.00,,,0.00,,2013-05-05 12:02:00,
2013-05-05 08:11:00,54.0,43.0,-100.00,East,90,2.0,5.0,67,0.00,,,0.00,,2013-05-05 12:11:00,
2013-05-05 08:21:00,56.0,44.0,-100.00,East,90,2.0,7.0,65,0.00,,,0.00,,2013-05-05 12:21:00,
2013-05-05 08:32:00,58.0,45.0,-100.00,ENE,68,1.0,5.0,62,0.00,,,0.00,,2013-05-05 12:32:00,
2013-05-05 08:42:00,58.0,45.0,-100.00,ENE,68,1.0,5.0,62,0.00,,,0.00,,2013-05-05 12:42:00,
2013-05-05 08:52:00,59.0,44.0,-100.00,ENE,68,0.0,5.0,57,0.00,,,0.00,,2013-05-05 12:52:00,
2013-05-05 09:01:00,60.0,43.0,-100.00,ESE,113,1.0,0.0,54,0.00,,,0.00,,2013-05-05 13:01:00,
2013-05-05 09:11:00,60.0,43.0,-100.00,ESE,113,1.0,0.0,54,0.00,,,0.00,,2013-05-05 13:11:00,
2013-05-05 09:21:00,61.0,44.0,-100.00,East,90,3.0,8.0,53,0.00,,,0.00,,2013-05-05 13:21:00,
2013-05-05 09:32:00,62.0,43.0,-100.00,East,90,7.0,7.0,50,0.00,,,0.00,,2013-05-05 13:32:00,
2013-05-05 09:42:00,62.0,43.0,-100.00,East,90,7.0,7.0,50,0.00,,,0.00,,2013-05-05 13:42:00,
2013-05-05 09:52:00,63.0,44.0,-100.00,East,90,3.0,7.0,49,0.00,,,0.00,,2013-05-05 13:52:00,
2013-05-05 10:02:00,64.0,44.0,-100.00,ENE,68,0.0,0.0,48,0.00,,,0.00,,2013-05-05 14:02:00,
2013-05-05 10:11:00,64.0,42.0,-100.00,East,90,2.0,5.0,45,0.00,,,0.00,,2013-05-05 14:11:00,
2013-05-05 10:21:00,64.0,42.0,-100.00,East,90,2.0,5.0,45,0.00,,,0.00,,2013-05-05 14:21:00,
2013-05-05 10:32:00,64.0,42.0,-100.00,East,90,0.0,0.0,45,0.00,,,0.00,,2013-05-05 14:32:00,
2013-05-05 10:42:00,64.0,42.0,-100.00,East,90,0.0,0.0,45,0.00,,,0.00,,2013-05-05 14:42:00,
2013-05-05 10:52:00,64.0,42.0,-100.00,ENE,68,6.0,7.0,45,0.00,,,0.00,,2013-05-05 14:52:00,
2013-05-05 11:02:00,66.0,43.0,-100.00,ENE,68,3.0,7.0,44,0.00,,,0.00,,2013-05-05 15:02:00,
2013-05-05 11:11:00,66.0,43.0,-100.00,ENE,68,3.0,7.0,44,0.00,,,0.00,,2013-05-05 15:11:00,
2013-05-05 11:21:00,66.0,43.0,-100.00,ESE,113,0.0,0.0,43,0.00,,,0.00,,2013-05-05 15:21:00,
2013-05-05 11:33:00,66.0,43.0,-100.00,East,90,1.0,0.0,43,0.00,,,0.00,,2013-05-05 15:33:00,
2013-05-05 11:43:00,66.0,43.0,-100.00,East,90,1.0,0.0,43,0.00,,,0.00,,2013-05-05 15:43:00,
2013-05-05 11:53:00,66.0,42.0,-100.00,ENE,68,5.0,7.0,42,0.00,,,0.00,,2013-05-05 15:53:00,
2013-05-05 12:03:00,66.0,42.0,-100.00,East,90,1.0,3.0,42,0.00,,,0.00,,2013-05-05 16:03:00,
2013-05-05 12:12:00,66.0,42.0,-100.00,East,90,1.0,3.0,42,0.00,,,0.00,,2013-05-05 16:12:00,
2013-05-05 12:23:00,66.0,42.0,-100.00,East,90,1.0,3.0,42,0.00,,,0.00,,2013-05-05 16:23:00,
2013-05-05 12:32:00,68.0,40.0,-100.00,East,90,0.0,0.0,36,0.00,,,0.00,,2013-05-05 16:32:00,
2013-05-05 12:42:00,68.0,40.0,-100.00,East,90,0.0,0.0,36,0.00,,,0.00,,2013-05-05 16:42:00,
2013-05-05 12:52:00,68.0,39.0,-100.00,East,90,2.0,5.0,34,0.00,,,0.00,,2013-05-05 16:52:00,
2013-05-05 13:02:00,68.0,39.0,-100.00,East,90,2.0,5.0,34,0.00,,,0.00,,2013-05-05 17:02:00,
2013-05-05 13:12:00,68.0,39.0,-100.00,East,90,2.0,5.0,34,0.00,,,0.00,,2013-05-05 17:12:00,
2013-05-05 13:23:00,68.0,39.0,-100.00,East,90,2.0,5.0,34,0.00,,,0.00,,2013-05-05 17:23:00,
2013-05-05 13:32:00,68.0,39.0,-100.00,East,90,2.0,5.0,34,0.00,,,0.00,,2013-05-05 17:32:00,
2013-05-05 16:21:00,72.0,26.0,-100.00,ENE,68,5.0,8.0,18,0.00,,,0.00,,2013-05-05 20:21:00,
2013-05-05 16:32:00,72.0,29.0,-100.00,ESE,113,3.0,5.0,20,0.00,,,0.00,,2013-05-05 20:32:00,
2013-05-05 16:42:00,72.0,29.0,-100.00,ESE,113,3.0,5.0,20,0.00,,,0.00,,2013-05-05 20:42:00,
2013-05-05 16:52:00,73.0,30.0,-100.00,ENE,68,7.0,10.0,20,0.00,,,0.00,,2013-05-05 20:52:00,
2013-05-05 17:02:00,72.0,30.0,-100.00,ENE,68,2.0,6.0,21,0.00,,,0.00,,2013-05-05 21:02:00,
2013-05-05 17:11:00,72.0,30.0,-100.00,ENE,68,2.0,6.0,21,0.00,,,0.00,,2013-05-05 21:11:00,
2013-05-05 17:21:00,72.0,29.0,-100.00,East,90,7.0,7.0,20,0.00,,,0.00,,2013-05-05 21:21:00,
2013-05-05 17:33:00,72.0,27.0,-100.00,ESE,113,5.0,7.0,19,0.00,,,0.00,,2013-05-05 21:33:00,
2013-05-05 17:42:00,72.0,27.0,-100.00,ESE,113,5.0,7.0,19,0.00,,,0.00,,2013-05-05 21:42:00,
2013-05-05 17:53:00,72.0,29.0,-100.00,East,90,5.0,6.0,20,0.00,,,0.00,,2013-05-05 21:53:00,
2013-05-05 18:02:00,72.0,29.0,-100.00,East,90,1.0,12.0,20,0.00,,,0.00,,2013-05-05 22:02:00,
2013-05-05 18:12:00,72.0,29.0,-100.00,East,90,1.0,12.0,20,0.00,,,0.00,,2013-05-05 22:12:00,
2013-05-05 18:22:00,71.0,28.0,-100.00,ENE,68,2.0,6.0,20,0.00,,,0.00,,2013-05-05 22:22:00,
2013-05-05 18:33:00,72.0,29.0,-100.00,ENE,68,1.0,6.0,20,0.00,,,0.00,,2013-05-05 22:33:00,
2013-05-05 18:42:00,72.0,29.0,-100.00,ENE,68,1.0,6.0,20,0.00,,,0.00,,2013-05-05 22:42:00,
2013-05-05 18:52:00,72.0,29.0,-100.00,East,90,0.0,0.0,20,0.00,,,0.00,,2013-05-05 22:52:00,
2013-05-05 19:02:00,71.0,28.0,-100.00,East,90,0.0,0.0,20,0.00,,,0.00,,2013-05-05 23:02:00,
2013-05-05 19:11:00,71.0,28.0,-100.00,East,90,0.0,0.0,20,0.00,,,0.00,,2013-05-05 23:11:00,
2013-05-05 19:21:00,71.0,25.0,-100.00,SE,135,0.0,0.0,18,0.00,,,0.00,,2013-05-05 23:21:00,
2013-05-05 19:32:00,70.0,27.0,-100.00,East,90,3.0,6.0,20,0.00,,,0.00,,2013-05-05 23:32:00,
2013-05-05 19:42:00,70.0,27.0,-100.00,East,90,3.0,6.0,20,0.00,,,0.00,,2013-05-05 23:42:00,
2013-05-05 19:52:00,69.0,29.0,-100.00,ENE,68,0.0,0.0,22,0.00,,,0.00,,2013-05-05 23:52:00,
2013-05-05 20:01:00,69.0,31.0,-100.00,East,90,0.0,0.0,24,0.00,,,0.00,,2013-05-06 00:01:00,
2013-05-05 20:11:00,69.0,31.0,-100.00,East,90,0.0,0.0,24,0.00,,,0.00,,2013-05-06 00:11:00,
2013-05-05 20:21:00,68.0,31.0,-100.00,NE,45,1.0,6.0,25,0.00,,,0.00,,2013-05-06 00:21:00,
2013-05-05 20:32:00,67.0,32.0,-100.00,NE,45,0.0,0.0,27,0.00,,,0.00,,2013-05-06 00:32:00,
2013-05-05 20:41:00,67.0,32.0,-100.00,NE,45,0.0,0.0,27,0.00,,,0.00,,2013-05-06 00:41:00,
2013-05-05 20:52:00,67.0,34.0,-100.00,NE,45,0.0,0.0,29,0.00,,,0.00,,2013-05-06 00:52:00,
2013-05-05 21:01:00,66.0,34.0,-100.00,NE,45,0.0,0.0,30,0.00,,,0.00,,2013-05-06 01:01:00,
2013-05-05 21:11:00,66.0,34.0,-100.00,NE,45,0.0,0.0,30,0.00,,,0.00,,2013-05-06 01:11:00,
2013-05-05 21:21:00,65.0,36.0,-100.00,NE,45,0.0,0.0,34,0.00,,,0.00,,2013-05-06 01:21:00,
2013-05-05 21:31:00,64.0,36.0,-100.00,NE,45,0.0,0.0,35,0.00,,,0.00,,2013-05-06 01:31:00,
2013-05-05 21:42:00,64.0,36.0,-100.00,NE,45,0.0,0.0,35,0.00,,,0.00,,2013-05-06 01:42:00,
2013-05-05 21:52:00,62.0,35.0,-100.00,NE,45,2.0,8.0,37,0.00,,,0.00,,2013-05-06 01:52:00,
2013-05-05 22:02:00,63.0,38.0,-100.00,North,0,2.0,8.0,39,0.00,,,0.00,,2013-05-06 02:02:00,
2013-05-05 22:12:00,63.0,38.0,-100.00,North,0,2.0,8.0,39,0.00,,,0.00,,2013-05-06 02:12:00,
2013-05-05 22:21:00,62.0,39.0,-100.00,NE,45,0.0,0.0,43,0.00,,,0.00,,2013-05-06 02:21:00,
2013-05-05 22:32:00,61.0,39.0,-100.00,ENE,68,3.0,6.0,44,0.00,,,0.00,,2013-05-06 02:32:00,
2013-05-05 22:42:00,61.0,39.0,-100.00,ENE,68,3.0,6.0,44,0.00,,,0.00,,2013-05-06 02:42:00,
2013-05-05 22:52:00,61.0,40.0,-100.00,ENE,68,1.0,0.0,45,0.00,,,0.00,,2013-05-06 02:52:00,
2013-05-05 23:02:00,60.0,40.0,-100.00,NNE,23,0.0,0.0,47,0.00,,,0.00,,2013-05-06 03:02:00,
2013-05-05 23:11:00,60.0,40.0,-100.00,NNE,23,0.0,0.0,47,0.00,,,0.00,,2013-05-06 03:11:00,
2013-05-05 23:22:00,59.0,39.0,-100.00,NNE,23,0.0,0.0,48,0.00,,,0.00,,2013-05-06 03:22:00,
2013-05-05 23:33:00,58.0,39.0,-100.00,NNE,23,0.0,0.0,50,0.00,,,0.00,,2013-05-06 03:33:00,
2013-05-05 23:42:00,58.0,39.0,-100.00,NNE,23,0.0,0.0,50,0.00,,,0.00,,2013-05-06 03:42:00,
2013-05-05 23:52:00,58.0,40.0,-100.00,NNE,23,0.0,0.0,52,0.00,,,0.00,,2013-05-06 03:52:00,